PILOTS ONLINE: 489    ATC ONLINE: 54

KNSE

Whiting Field Naval Air Station North Airport

Location

City Milton
Country  United States
Latitude 30° 43' 27" N
Longitude 87° 1' 18" W
Elevation 199 ft
Type Medium Airport

Map

Weather

METAR
2014/09/21 21:56
KNSE 212156Z 09004KT 10SM FEW055 31/17 A2997 RMK AO2 SLP133 T03060172 $
TAF
2014/09/21 15:03
TAF KNSE 2115/2215 04003KT 9999 SCT035 SCT250 QNH3000INS 
      BECMG 2123/2201 VRB03KT FEW250 QNH3002INS 
      BECMG 2209/2211 36005KT SCT250 QNH3006INS AUTOMATED SENSOR METWATCH 2115 TIL 2121 T32/2119Z T20/2210Z FN00087

Runways

05/23 6000 ft / 200 ft
09/27 6000 ft / 200 ft
14/32 6000 ft / 200 ft
18/36 6000 ft / 200 ft

Outbound flights

Callsign Flying to Pilot ATD/STD ETA Aircraft

Inbound flights

Callsign Flying from Pilot ATD ETA Aircraft